Strona główna
METAR-TAF:

METAR-TAF

Lotnisko :

Lotnisko Ronaldsway

Wyspa Man,

Szerokość geograficzna: 54-05N, Długość geograficzna: 004-38W, wysokość: 17 m

Aktualna obserwacja pogody

Raport powstał 36 minut temu, godzina 17:50 UTC
Wiatr 9 kt od południowy zachód
Temperatura 14°C
Wilgotność 77%
Ciśnienie 1025 hPa
Widzialność 10 km lub więcej
Mało chmury na wysokości 2500 ft

METAR: EGNS 121750Z 23009KT 9999 FEW025 14/10 Q1025 NOSIG

czas: 19:26 (18:26 UTC)

Prognoza

Raport powstał 1 godzina i 26 minut temu, godzina 17:00 UTC
Prognoza ważna od 12 godzina 18 UTC do 12 godzina 21 UTC
Wiatr 10 kt od południowy zachód
Widzialność 10 km lub więcej
Mało chmury na wysokości 2000 ft
Rozproszone chmury na wysokości 3500 ft

TAF: EGNS 121700Z 1218/1221 22010KT 9999 FEW020 SCT035

Obserwacja i prognoza pogody dla ponad 4000 lotnisk (raport METAR i TAF).

Dostępne stacje oznaczono żółtymi i czerwonymi punktami na mapie.

Najedź kursorem aby zobaczyć nazwę stacji.

Kliknij aby zobaczyć obserwacje i prognozy pogody.

Aby zmienić mapę: kliknij na zielony przycisk z czarnym krzyżykiem, aby powiększyć; na zielony przycisk z myślnikiem, aby pomniejszyć; na zielone strzałki, aby przejść do map sąsiednich.


METAR-TAF: